createdAt,value
2023-12-09T00:01:00.696Z,58.61
2023-12-09T00:03:34.942Z,58.21
2023-12-09T00:06:09.213Z,58.22
2023-12-09T00:08:44.207Z,58.12
2023-12-09T00:11:20.192Z,58.40
2023-12-09T00:13:56.283Z,58.24
2023-12-09T00:16:30.149Z,58.46
2023-12-09T00:19:03.805Z,58.57
2023-12-09T00:21:40.424Z,58.35
2023-12-09T00:24:15.479Z,58.08
2023-12-09T00:26:49.322Z,58.79
2023-12-09T00:29:23.053Z,58.54
2023-12-09T00:31:59.571Z,58.72
2023-12-09T00:34:33.107Z,58.24
2023-12-09T00:37:06.804Z,58.76
2023-12-09T00:39:44.182Z,58.98
2023-12-09T00:42:17.749Z,58.35
2023-12-09T00:44:52.184Z,58.77
2023-12-09T00:47:26.133Z,58.81
2023-12-09T00:50:01.333Z,58.62
2023-12-09T00:52:35.288Z,58.62
2023-12-09T00:55:12.619Z,58.71
2023-12-09T00:57:46.454Z,58.09
2023-12-09T01:00:21.293Z,57.88
2023-12-09T01:02:58.041Z,58.48
2023-12-09T01:05:31.891Z,58.24
2023-12-09T01:08:05.457Z,58.23
2023-12-09T01:10:41.022Z,58.10
2023-12-09T01:13:14.998Z,57.85
2023-12-09T01:15:50.898Z,57.94
2023-12-09T01:18:24.894Z,58.11
2023-12-09T01:21:01.116Z,57.77
2023-12-09T01:23:34.700Z,58.55
2023-12-09T01:26:13.951Z,58.51
2023-12-09T01:28:53.084Z,58.58
2023-12-09T01:31:26.515Z,58.66
2023-12-09T01:34:00.663Z,58.77
2023-12-09T01:36:34.414Z,58.41
2023-12-09T01:39:10.036Z,58.20
2023-12-09T01:41:45.815Z,58.14
2023-12-09T01:44:22.692Z,58.35
2023-12-09T01:46:57.825Z,58.48
2023-12-09T01:49:31.767Z,58.52
2023-12-09T01:52:14.676Z,58.76
2023-12-09T01:54:48.876Z,59.05
2023-12-09T01:57:24.604Z,59.44
2023-12-09T01:59:58.581Z,59.48
2023-12-09T02:02:32.766Z,59.60
2023-12-09T02:05:07.366Z,59.28
2023-12-09T02:07:41.138Z,59.80
2023-12-09T02:10:15.574Z,59.67
2023-12-09T02:13:00.462Z,60.27
2023-12-09T02:15:38.348Z,59.91
2023-12-09T02:18:12.989Z,59.67
2023-12-09T02:20:46.838Z,59.65
2023-12-09T02:23:22.153Z,59.27
2023-12-09T02:26:05.557Z,60.13
2023-12-09T02:28:45.905Z,59.69
2023-12-09T02:31:25.614Z,59.56
2023-12-09T02:34:01.503Z,59.90
2023-12-09T02:36:37.024Z,59.91
2023-12-09T02:39:15.757Z,60.65
2023-12-09T02:41:50.597Z,59.77
2023-12-09T02:44:25.188Z,60.37
2023-12-09T02:46:59.041Z,61.18
2023-12-09T02:49:32.666Z,60.12
2023-12-09T02:52:06.848Z,59.80
2023-12-09T02:54:41.985Z,59.81
2023-12-09T02:57:15.104Z,59.48
2023-12-09T02:59:49.166Z,59.60
2023-12-09T03:02:22.761Z,59.20
2023-12-09T03:04:56.565Z,59.04
2023-12-09T03:07:30.319Z,59.64
2023-12-09T03:10:05.867Z,59.61
2023-12-09T03:12:39.546Z,59.90
2023-12-09T03:15:13.114Z,59.98
2023-12-09T03:17:47.065Z,60.47
2023-12-09T03:20:22.254Z,60.39
2023-12-09T03:22:56.276Z,60.15
2023-12-09T03:25:31.369Z,60.10
2023-12-09T03:28:06.230Z,60.15
2023-12-09T03:30:39.963Z,60.01
2023-12-09T03:33:13.485Z,59.32
2023-12-09T03:35:47.512Z,59.60
2023-12-09T03:38:21.183Z,60.36
2023-12-09T03:40:56.776Z,60.35
2023-12-09T03:43:30.392Z,59.82
2023-12-09T03:46:03.959Z,59.53
2023-12-09T03:48:37.565Z,59.03
2023-12-09T03:51:11.233Z,58.88
2023-12-09T03:53:45.704Z,59.37
2023-12-09T03:56:22.026Z,58.68
2023-12-09T03:58:55.712Z,58.80
2023-12-09T04:01:29.154Z,58.90
2023-12-09T04:04:02.646Z,58.66
2023-12-09T04:06:35.996Z,58.97
2023-12-09T04:09:10.487Z,58.64
2023-12-09T04:11:45.731Z,58.68
2023-12-09T04:14:19.473Z,58.45
2023-12-09T04:16:52.975Z,58.24
2023-12-09T04:19:26.619Z,58.45
2023-12-09T04:22:00.570Z,58.48
2023-12-09T04:24:34.124Z,58.77
2023-12-09T04:27:09.583Z,58.92
2023-12-09T04:29:43.905Z,58.81
2023-12-09T04:32:17.267Z,58.63
2023-12-09T04:34:51.195Z,58.56
2023-12-09T04:37:25.718Z,58.58
2023-12-09T04:40:00.094Z,59.02
2023-12-09T04:42:35.591Z,58.89
2023-12-09T04:45:10.536Z,58.67
2023-12-09T04:47:44.563Z,58.71
2023-12-09T04:50:18.838Z,58.45
2023-12-09T04:52:52.381Z,58.14
2023-12-09T04:55:26.197Z,58.55
2023-12-09T04:58:01.154Z,58.12
2023-12-09T05:00:34.840Z,58.29
2023-12-09T05:03:08.891Z,59.25
2023-12-09T05:05:42.342Z,59.04
2023-12-09T05:08:16.101Z,59.76
2023-12-09T05:10:52.288Z,59.55
2023-12-09T05:13:27.972Z,59.62
2023-12-09T05:16:01.473Z,59.51
2023-12-09T05:18:36.371Z,59.95
2023-12-09T05:21:10.749Z,59.64
2023-12-09T05:23:44.447Z,59.41
2023-12-09T05:26:24.994Z,59.95
2023-12-09T05:29:00.703Z,60.55
2023-12-09T05:31:34.849Z,60.57
2023-12-09T05:34:08.936Z,60.49
2023-12-09T05:36:44.093Z,60.34
2023-12-09T05:39:18.040Z,59.42
2023-12-09T05:41:51.416Z,59.21
2023-12-09T05:44:26.846Z,59.38
2023-12-09T05:47:00.481Z,59.31
2023-12-09T05:49:34.173Z,59.65
2023-12-09T05:52:08.494Z,60.06
2023-12-09T05:54:43.098Z,60.42
2023-12-09T05:57:16.773Z,60.08
2023-12-09T05:59:51.736Z,60.38
2023-12-09T06:02:26.215Z,60.60
2023-12-09T06:04:59.983Z,60.53
2023-12-09T06:07:33.629Z,60.06
2023-12-09T06:10:08.871Z,60.56
2023-12-09T06:12:43.171Z,60.47
2023-12-09T06:15:19.391Z,59.72
2023-12-09T06:17:53.079Z,59.84
2023-12-09T06:20:26.728Z,60.17
2023-12-09T06:23:00.180Z,60.58
2023-12-09T06:25:33.538Z,60.44
2023-12-09T06:28:07.604Z,60.31
2023-12-09T06:30:42.318Z,60.31
2023-12-09T06:33:15.822Z,60.03
2023-12-09T06:35:49.164Z,59.89
2023-12-09T06:38:22.348Z,59.94
2023-12-09T06:40:55.561Z,59.70
2023-12-09T06:43:29.087Z,59.78
2023-12-09T06:46:03.888Z,59.99
2023-12-09T06:48:39.063Z,60.10
2023-12-09T06:51:16.998Z,59.93
2023-12-09T06:53:50.313Z,60.29
2023-12-09T06:56:24.104Z,60.22
2023-12-09T06:58:57.514Z,60.09
2023-12-09T07:01:32.824Z,59.58
2023-12-09T07:04:10.577Z,59.42
2023-12-09T07:06:44.416Z,59.51
2023-12-09T07:09:18.508Z,59.81
2023-12-09T07:12:01.619Z,60.32
2023-12-09T07:14:36.789Z,59.80
2023-12-09T07:17:14.350Z,59.92
2023-12-09T07:19:49.075Z,60.13
2023-12-09T07:22:25.132Z,61.08
2023-12-09T07:25:00.250Z,59.61
2023-12-09T07:27:34.218Z,59.57
2023-12-09T07:30:09.322Z,60.62
2023-12-09T07:32:44.808Z,59.93
2023-12-09T07:35:19.359Z,60.47
2023-12-09T07:37:53.083Z,60.80
2023-12-09T07:40:26.767Z,60.78
2023-12-09T07:43:05.592Z,60.45
2023-12-09T07:45:39.329Z,60.20
2023-12-09T07:48:14.576Z,59.24
2023-12-09T07:50:48.365Z,59.35
2023-12-09T07:53:38.317Z,59.49
2023-12-09T07:56:35.337Z,59.42
2023-12-09T07:59:10.597Z,59.36
2023-12-09T08:01:58.820Z,59.72
2023-12-09T08:04:39.077Z,60.86
2023-12-09T08:07:12.775Z,60.61
2023-12-09T08:09:55.338Z,60.72
2023-12-09T08:12:29.387Z,60.60
2023-12-09T08:15:03.271Z,60.81
2023-12-09T08:17:36.862Z,62.08
2023-12-09T08:20:36.990Z,61.86
2023-12-09T08:23:10.441Z,62.23
2023-12-09T08:25:45.047Z,62.74
2023-12-09T08:28:18.516Z,61.58
2023-12-09T08:30:52.263Z,61.30
2023-12-09T08:33:26.025Z,61.02
2023-12-09T08:36:01.479Z,60.55
2023-12-09T08:38:34.841Z,60.55
2023-12-09T08:41:08.615Z,60.38
2023-12-09T08:43:41.978Z,60.25
2023-12-09T08:46:15.625Z,60.54
2023-12-09T08:48:49.937Z,60.24
2023-12-09T08:51:25.126Z,60.86
2023-12-09T08:53:58.993Z,60.96
2023-12-09T08:56:32.962Z,61.08
2023-12-09T08:59:09.179Z,61.14
2023-12-09T09:01:42.594Z,61.06
2023-12-09T09:04:15.907Z,61.29
2023-12-09T09:06:50.838Z,61.14
2023-12-09T09:09:28.659Z,63.10
2023-12-09T09:12:02.602Z,62.62
2023-12-09T09:14:37.523Z,62.13
2023-12-09T09:17:11.756Z,61.28
2023-12-09T09:19:45.736Z,60.30
2023-12-09T09:22:20.506Z,60.64
2023-12-09T09:24:53.833Z,60.78
2023-12-09T09:27:28.008Z,60.98
2023-12-09T09:30:01.654Z,61.13
2023-12-09T09:32:35.095Z,61.15
2023-12-09T09:35:09.718Z,61.39
2023-12-09T09:37:46.972Z,61.27
2023-12-09T09:40:22.035Z,61.38
2023-12-09T09:42:59.740Z,61.53
2023-12-09T09:45:33.462Z,60.99
2023-12-09T09:48:07.960Z,60.99
2023-12-09T09:50:43.335Z,61.01
2023-12-09T09:53:22.760Z,61.24
2023-12-09T09:55:57.706Z,61.38
2023-12-09T09:58:33.076Z,60.44
2023-12-09T10:01:07.245Z,60.51
2023-12-09T10:03:41.429Z,61.18
2023-12-09T10:06:15.863Z,60.55
2023-12-09T10:08:51.244Z,60.34
2023-12-09T10:11:24.650Z,60.80
2023-12-09T10:13:58.308Z,60.83
2023-12-09T10:16:34.403Z,61.15
2023-12-09T10:19:11.273Z,61.18
2023-12-09T10:21:44.917Z,59.81
2023-12-09T10:24:20.211Z,59.83
2023-12-09T10:26:53.613Z,59.34
2023-12-09T10:29:27.056Z,59.51
2023-12-09T10:32:02.505Z,59.87
2023-12-09T10:34:36.763Z,60.09
2023-12-09T10:37:10.638Z,60.12
2023-12-09T10:39:47.196Z,59.51
2023-12-09T10:42:24.430Z,60.15
2023-12-09T10:45:09.344Z,60.42
2023-12-09T10:47:45.098Z,59.73
2023-12-09T10:50:18.984Z,60.06
2023-12-09T10:52:52.321Z,59.68
2023-12-09T10:55:29.099Z,59.89
2023-12-09T10:58:03.983Z,59.86
2023-12-09T11:00:38.838Z,60.35
2023-12-09T11:03:12.597Z,61.16
2023-12-09T11:05:52.632Z,59.95
2023-12-09T11:08:29.384Z,59.81
2023-12-09T11:11:06.632Z,59.99
2023-12-09T11:13:45.676Z,59.86
2023-12-09T11:16:22.581Z,60.51
2023-12-09T11:18:57.254Z,60.43
2023-12-09T11:21:31.251Z,60.28
2023-12-09T11:24:04.594Z,60.10
2023-12-09T11:26:39.341Z,60.42
2023-12-09T11:29:13.997Z,60.59
2023-12-09T11:31:51.517Z,60.16
2023-12-09T11:34:26.063Z,60.28
2023-12-09T11:37:01.145Z,61.82
2023-12-09T11:39:34.604Z,62.16
2023-12-09T11:42:10.407Z,60.79
2023-12-09T11:44:44.822Z,60.73
2023-12-09T11:47:20.495Z,60.38
2023-12-09T11:49:55.662Z,60.00
2023-12-09T11:52:29.197Z,60.97
2023-12-09T11:55:03.330Z,60.77
2023-12-09T11:57:38.270Z,60.21
2023-12-09T12:00:12.818Z,60.05
2023-12-09T12:02:46.460Z,60.04
2023-12-09T12:05:19.939Z,61.18
2023-12-09T12:07:53.289Z,61.11
2023-12-09T12:10:26.614Z,60.73
2023-12-09T12:13:03.528Z,61.03
2023-12-09T12:15:36.805Z,61.07
2023-12-09T12:18:10.274Z,62.06
2023-12-09T12:20:44.230Z,61.66
2023-12-09T12:23:26.407Z,61.71
2023-12-09T12:26:06.509Z,61.30
2023-12-09T12:28:41.455Z,61.67
2023-12-09T12:31:15.027Z,60.83
2023-12-09T12:33:48.457Z,60.41
2023-12-09T12:36:22.519Z,60.63
2023-12-09T12:38:57.348Z,60.78
2023-12-09T12:41:31.493Z,60.94
2023-12-09T12:44:07.590Z,60.50
2023-12-09T12:46:41.444Z,60.63
2023-12-09T12:49:15.348Z,61.98
2023-12-09T12:51:51.216Z,62.04
2023-12-09T12:54:24.776Z,62.15
2023-12-09T12:57:00.424Z,62.49
2023-12-09T12:59:36.730Z,63.06
2023-12-09T13:02:10.936Z,62.87
2023-12-09T13:04:46.340Z,61.57
2023-12-09T13:07:19.813Z,61.13
2023-12-09T13:09:53.176Z,61.27
2023-12-09T13:12:27.543Z,61.21
2023-12-09T13:15:02.839Z,61.14
2023-12-09T13:17:36.810Z,61.16
2023-12-09T13:20:11.324Z,61.26
2023-12-09T13:22:47.234Z,61.69
2023-12-09T13:25:20.719Z,61.75
2023-12-09T13:27:54.498Z,61.46
2023-12-09T13:30:30.026Z,61.56
2023-12-09T13:33:04.068Z,61.38
2023-12-09T13:35:37.515Z,61.46
2023-12-09T13:38:11.036Z,61.70
2023-12-09T13:40:47.411Z,61.27
2023-12-09T13:43:20.741Z,61.38
2023-12-09T13:45:55.561Z,61.00
2023-12-09T13:48:29.036Z,61.30
2023-12-09T13:51:02.458Z,61.25
2023-12-09T13:53:35.768Z,61.48
2023-12-09T13:56:09.824Z,61.19
2023-12-09T13:58:43.024Z,61.42
2023-12-09T14:01:18.009Z,61.64
2023-12-09T14:03:51.501Z,61.20
2023-12-09T14:06:25.869Z,61.55
2023-12-09T14:08:59.197Z,61.68
2023-12-09T14:11:32.382Z,62.00
2023-12-09T14:14:07.738Z,61.65
2023-12-09T14:16:43.966Z,61.27
2023-12-09T14:19:18.649Z,61.30
2023-12-09T14:21:52.153Z,60.82
2023-12-09T14:24:25.829Z,60.86
2023-12-09T14:27:00.730Z,61.36
2023-12-09T14:29:34.562Z,60.87
2023-12-09T14:32:09.762Z,60.99
2023-12-09T14:34:43.214Z,60.51
2023-12-09T14:37:17.083Z,60.97
2023-12-09T14:39:50.854Z,60.85
2023-12-09T14:42:24.674Z,60.90
2023-12-09T14:44:58.379Z,60.65
2023-12-09T14:47:33.717Z,61.14
2023-12-09T14:50:08.292Z,61.12
2023-12-09T14:52:42.899Z,60.86
2023-12-09T14:55:16.496Z,61.24
2023-12-09T14:57:50.429Z,61.08
2023-12-09T15:00:25.071Z,61.85
2023-12-09T15:03:00.700Z,61.77
2023-12-09T15:05:34.247Z,61.69
2023-12-09T15:08:08.765Z,61.60
2023-12-09T15:10:42.645Z,61.65
2023-12-09T15:13:16.152Z,62.63
2023-12-09T15:15:49.973Z,62.26
2023-12-09T15:18:25.119Z,61.62
2023-12-09T15:20:58.920Z,61.11
2023-12-09T15:23:32.761Z,61.23
2023-12-09T15:26:06.839Z,61.74
2023-12-09T15:28:40.713Z,61.29
2023-12-09T15:31:14.208Z,61.33
2023-12-09T15:33:49.953Z,61.42
2023-12-09T15:36:24.671Z,61.45
2023-12-09T15:38:58.325Z,61.29
2023-12-09T15:41:34.690Z,61.09
2023-12-09T15:44:08.240Z,60.80
2023-12-09T15:46:42.939Z,61.60
2023-12-09T15:49:17.976Z,60.90
2023-12-09T15:51:53.607Z,61.10
2023-12-09T15:54:27.029Z,60.94
2023-12-09T15:57:03.265Z,61.21
2023-12-09T15:59:37.058Z,61.11
2023-12-09T16:02:10.806Z,61.89
2023-12-09T16:04:45.625Z,61.75
2023-12-09T16:07:18.791Z,62.07
2023-12-09T16:09:55.179Z,61.62
2023-12-09T16:12:33.448Z,62.00
2023-12-09T16:15:08.202Z,61.71
2023-12-09T16:17:42.686Z,61.73
2023-12-09T16:20:18.219Z,61.73
2023-12-09T16:22:51.733Z,62.19
2023-12-09T16:25:25.122Z,62.50
2023-12-09T16:27:58.696Z,62.13
2023-12-09T16:30:32.078Z,61.77
2023-12-09T16:33:11.843Z,62.74
2023-12-09T16:35:49.557Z,62.50
2023-12-09T16:38:22.724Z,62.67
2023-12-09T16:40:55.804Z,62.31
2023-12-09T16:43:29.141Z,62.29
2023-12-09T16:46:02.429Z,62.08
2023-12-09T16:48:35.695Z,62.29
2023-12-09T16:51:10.583Z,62.06
2023-12-09T16:53:43.669Z,62.07
2023-12-09T16:56:17.683Z,63.06
2023-12-09T16:58:50.859Z,63.59
2023-12-09T17:01:24.093Z,64.33
2023-12-09T17:03:57.309Z,64.13
2023-12-09T17:06:31.987Z,63.34
2023-12-09T17:09:05.702Z,63.65
2023-12-09T17:11:38.934Z,63.91
2023-12-09T17:14:12.684Z,64.13
2023-12-09T17:16:46.648Z,65.35
2023-12-09T17:19:19.981Z,64.67
2023-12-09T17:21:55.057Z,64.77
2023-12-09T17:24:28.318Z,64.88
2023-12-09T17:27:01.555Z,65.14
2023-12-09T17:29:34.717Z,64.87
2023-12-09T17:32:08.524Z,64.49
2023-12-09T17:34:41.677Z,64.92
2023-12-09T17:37:16.214Z,64.82
2023-12-09T17:39:49.588Z,64.42
2023-12-09T17:42:22.866Z,64.68
2023-12-09T17:44:56.650Z,65.09
2023-12-09T17:47:32.794Z,64.76
2023-12-09T17:50:07.198Z,64.82
2023-12-09T17:52:42.149Z,65.41
2023-12-09T17:55:15.540Z,65.15
2023-12-09T17:57:49.145Z,65.70
2023-12-09T18:00:22.352Z,66.00
2023-12-09T18:02:56.186Z,65.70
2023-12-09T18:05:29.723Z,65.41
2023-12-09T18:08:09.168Z,65.09
2023-12-09T18:10:42.906Z,64.91
2023-12-09T18:13:16.328Z,64.50
2023-12-09T18:15:50.731Z,64.20
2023-12-09T18:18:24.425Z,63.43
2023-12-09T18:20:57.784Z,62.65
2023-12-09T18:23:32.477Z,63.75
2023-12-09T18:26:06.113Z,63.92
2023-12-09T18:28:39.877Z,63.92
2023-12-09T18:31:13.648Z,64.05
2023-12-09T18:33:47.022Z,64.31
2023-12-09T18:36:21.484Z,64.59
2023-12-09T18:38:56.372Z,62.34
2023-12-09T18:41:29.700Z,63.47
2023-12-09T18:44:04.273Z,62.38
2023-12-09T18:46:37.703Z,62.58
2023-12-09T18:49:12.445Z,62.23
2023-12-09T18:51:45.874Z,62.63
2023-12-09T18:54:20.522Z,62.44
2023-12-09T18:56:54.011Z,62.41
2023-12-09T18:59:27.670Z,62.31
2023-12-09T19:02:09.150Z,62.51
2023-12-09T19:05:51.141Z,62.37
2023-12-09T19:08:47.556Z,62.34
2023-12-09T19:11:22.174Z,61.74
2023-12-09T19:13:55.728Z,61.72
2023-12-09T19:16:29.173Z,61.47
2023-12-09T19:19:03.100Z,61.60
2023-12-09T19:21:38.698Z,61.41
2023-12-09T19:24:12.189Z,61.27
2023-12-09T19:26:47.463Z,61.21
2023-12-09T19:29:20.678Z,61.24
2023-12-09T19:31:53.930Z,61.40
2023-12-09T19:34:31.225Z,61.63
2023-12-09T19:37:05.192Z,61.44
2023-12-09T19:39:39.669Z,61.30
2023-12-09T19:42:14.790Z,61.09
2023-12-09T19:44:48.182Z,61.24
2023-12-09T19:47:21.635Z,61.02
2023-12-09T19:49:54.979Z,60.74
2023-12-09T19:52:29.726Z,61.05
2023-12-09T19:55:03.175Z,61.20
2023-12-09T19:57:38.282Z,61.32
2023-12-09T20:00:12.668Z,61.32
2023-12-09T20:02:47.866Z,60.82
2023-12-09T20:05:23.228Z,61.38
2023-12-09T20:07:57.124Z,61.46
2023-12-09T20:10:30.842Z,61.74
2023-12-09T20:13:07.644Z,61.73
2023-12-09T20:15:46.553Z,61.20
2023-12-09T20:21:44.496Z,62.03
2023-12-09T20:24:27.485Z,62.27
2023-12-09T20:27:03.836Z,62.00
2023-12-09T20:29:38.879Z,61.69
2023-12-09T20:32:12.847Z,61.36
2023-12-09T20:34:48.529Z,61.45
2023-12-09T20:37:21.983Z,61.27
2023-12-09T20:39:58.364Z,61.20
2023-12-09T20:42:31.944Z,60.68
2023-12-09T20:45:08.414Z,60.76
2023-12-09T20:47:42.508Z,60.36
2023-12-09T20:50:16.586Z,60.34
2023-12-09T20:52:49.887Z,60.12
2023-12-09T20:55:23.207Z,60.36
2023-12-09T20:57:56.946Z,60.30
2023-12-09T21:00:31.660Z,60.52
2023-12-09T21:03:06.163Z,60.58
2023-12-09T21:05:39.535Z,60.74
2023-12-09T21:08:12.904Z,60.41
2023-12-09T21:10:46.567Z,60.58
2023-12-09T21:13:19.981Z,60.31
2023-12-09T21:15:54.578Z,60.28
2023-12-09T21:18:28.473Z,60.48
2023-12-09T21:21:01.613Z,60.57
2023-12-09T21:23:34.819Z,60.19
2023-12-09T21:26:08.341Z,59.68
2023-12-09T21:28:42.014Z,59.65
2023-12-09T21:31:16.970Z,59.42
2023-12-09T21:33:50.968Z,59.16
2023-12-09T21:36:24.412Z,59.12
2023-12-09T21:38:58.206Z,58.98
2023-12-09T21:41:31.999Z,58.97
2023-12-09T21:44:06.254Z,59.59
2023-12-09T21:46:42.767Z,59.73
2023-12-09T21:49:16.188Z,59.38
2023-12-09T21:51:49.655Z,59.23
2023-12-09T21:54:23.304Z,59.43
2023-12-09T21:56:56.844Z,59.34
2023-12-09T21:59:30.526Z,59.46
2023-12-09T22:02:05.871Z,59.39
2023-12-09T22:04:39.180Z,59.54
2023-12-09T22:07:12.391Z,59.16
2023-12-09T22:09:45.732Z,59.20
2023-12-09T22:12:19.046Z,59.11
2023-12-09T22:14:52.651Z,59.30
2023-12-09T22:17:27.312Z,59.38
2023-12-09T22:20:01.038Z,59.52
2023-12-09T22:22:41.164Z,59.58
2023-12-09T22:25:17.736Z,59.43
2023-12-09T22:27:51.413Z,59.09
2023-12-09T22:30:24.898Z,58.89
2023-12-09T22:32:59.886Z,59.76
2023-12-09T22:35:34.235Z,58.96
2023-12-09T22:38:07.352Z,60.65
2023-12-09T22:40:40.842Z,59.55
2023-12-09T22:43:14.020Z,59.21
2023-12-09T22:45:47.261Z,58.65
2023-12-09T22:48:22.128Z,58.78
2023-12-09T22:50:55.843Z,59.31
2023-12-09T22:53:29.205Z,59.01
2023-12-09T22:56:12.737Z,58.63
2023-12-09T22:58:47.965Z,58.81
2023-12-09T23:01:23.777Z,59.36
2023-12-09T23:03:58.607Z,59.23
2023-12-09T23:06:31.894Z,58.94
2023-12-09T23:09:05.830Z,59.02
2023-12-09T23:11:38.981Z,58.95
2023-12-09T23:14:13.396Z,58.74
2023-12-09T23:16:47.164Z,59.19
2023-12-09T23:19:21.952Z,59.38
2023-12-09T23:21:55.863Z,59.36
2023-12-09T23:24:29.388Z,59.40
2023-12-09T23:27:02.943Z,59.14
2023-12-09T23:29:36.213Z,59.20
2023-12-09T23:32:12.390Z,59.34
2023-12-09T23:34:47.699Z,59.48
2023-12-09T23:37:21.403Z,59.18
2023-12-09T23:39:54.797Z,59.71
2023-12-09T23:42:28.766Z,59.49
2023-12-09T23:45:02.099Z,59.74
2023-12-09T23:47:35.465Z,59.89
2023-12-09T23:50:11.669Z,59.91
2023-12-09T23:52:46.822Z,60.26
2023-12-09T23:55:20.114Z,59.32
2023-12-09T23:57:53.608Z,59.42
